LTCE Airport Information

Runway Information
Runway 05 Length 3051 ft width 49 ft
Elevation 0 ft Threshold 0 ft Heading 48
Runway 23 Length 3051 ft Width 49 ft
Elevation 0 ft Threshold 0 ft Heading 228
Runway 08L Length 12499 ft width 148 ft
Elevation 5764 ft Threshold 0 ft Heading 88
Runway 26R Length 12499 ft Width 148 ft
Elevation 5761 ft Threshold 0 ft Heading 268
Runway 08R Length 12500 ft width 98 ft
Elevation 5762 ft Threshold 0 ft Heading 88
Runway 26L Length 12500 ft Width 98 ft
Elevation 5757 ft Threshold 0 ft Heading 268
Airport Frequencies
Type APP Name APP Frequency 118.1 MHZ
Type GND Name GND Frequency 121.95 MHZ
Type TWR Name TWR Frequency 118.1 MHZ
Airport Navaids
Type NDB Name Erzurum Frequency 434 KHZ
Type TACAN Name Erzurum Frequency 111400 KHZ
Type VOR-DME Name Erzurum Frequency 115500 KHZ
Type NDB Name Erzurum Frequency 354 KHZ
Airport Weather Information & NOTAM
ADDS - METARS form results

(2131 UTC 27 January 2020)
Data provider http://aviationweather.gov/metar/data/
 
METAR text: LTCE 272120Z 23003KT 190V250 CAVOK M16/M19 Q1023 NOSIG RMK RWY08R 17003KT RWY26R 23004KT RWY08L 17003KT
Conditions at: LTCE (ERZURUM (CIV/MIL, TR) observed 2120 UTC 27 January 2020
Temperature: -16.0°C ( 3°F)
Dewpoint: -19.0°C (-2°F) [RH = 78%]
Pressure (altimeter): 30.21 inches Hg (1023.0 mb)
Winds: from the SW (230 degrees) at 3 MPH (3 knots; 1.5 m/s)
Visibility: 6 or more miles (10+ km)
Ceiling: ceiling and visibility are OK
Clouds: unknown
Weather: no significant weather observed at this time

METAR text: LTCE 272050Z VRB02KT CAVOK M15/M17 Q1023 NOSIG RMK RWY08R 20003KT RWY26R 23002KT RWY08L 22004KT
Conditions at: LTCE (ERZURUM (CIV/MIL, TR) observed 2050 UTC 27 January 2020
Temperature: -15.0°C ( 5°F)
Dewpoint: -17.0°C ( 1°F) [RH = 85%]
Pressure (altimeter): 30.21 inches Hg (1023.0 mb)
Winds: variable direction winds at 2 MPH (2 knots; 1.0 m/s)
Visibility: 6 or more miles (10+ km)
Ceiling: ceiling and visibility are OK
Clouds: unknown
Weather: no significant weather observed at this time

Forecast for: LTCE (ERZURUM (CIV/MIL, TR)
Text: TAF LTCE 271640Z 2718/2818 VRB02KT CAVOK
Forecast period: 1800 UTC 27 January 2020 to 1800 UTC 28 January 2020
Forecast type: FROM: standard forecast or significant change
Winds: variable direction winds at 2 MPH (2 knots; 1.0 m/s)
Visibility: 6 or more miles 10+ km)
Ceiling: unknown
Clouds: missing
Weather: NSW  (no significant weather)